sensor_id;sensor_type;location;lat;lon;timestamp;temperature;humidity
4548;DHT22;2286;51.570;7.090;2022-11-20T00:01:33;-3.70;1.00
4548;DHT22;2286;51.570;7.090;2022-11-20T00:04:00;-3.70;99.90
4548;DHT22;2286;51.570;7.090;2022-11-20T00:06:28;-3.80;99.90
4548;DHT22;2286;51.570;7.090;2022-11-20T00:08:59;-3.80;99.90
4548;DHT22;2286;51.570;7.090;2022-11-20T00:11:28;-3.80;1.00
4548;DHT22;2286;51.570;7.090;2022-11-20T00:13:57;-3.90;1.00
4548;DHT22;2286;51.570;7.090;2022-11-20T00:16:27;-3.90;99.90
4548;DHT22;2286;51.570;7.090;2022-11-20T00:18:56;-3.90;99.90
4548;DHT22;2286;51.570;7.090;2022-11-20T00:21:25;-3.90;1.00
4548;DHT22;2286;51.570;7.090;2022-11-20T00:23:55;-3.90;1.00
4548;DHT22;2286;51.570;7.090;2022-11-20T00:26:25;-3.90;1.00
4548;DHT22;2286;51.570;7.090;2022-11-20T00:28:53;-4.00;1.00
4548;DHT22;2286;51.570;7.090;2022-11-20T00:31:21;-3.90;1.00
4548;DHT22;2286;51.570;7.090;2022-11-20T00:33:49;-4.00;1.00
4548;DHT22;2286;51.570;7.090;2022-11-20T00:36:20;-4.00;1.00
4548;DHT22;2286;51.570;7.090;2022-11-20T00:38:51;-4.00;1.00
4548;DHT22;2286;51.570;7.090;2022-11-20T00:41:18;-4.00;1.00
4548;DHT22;2286;51.570;7.090;2022-11-20T00:43:46;-3.90;1.00
4548;DHT22;2286;51.570;7.090;2022-11-20T00:46:15;-4.00;1.00
4548;DHT22;2286;51.570;7.090;2022-11-20T00:48:43;-4.00;1.00
4548;DHT22;2286;51.570;7.090;2022-11-20T00:51:11;-4.10;1.00
4548;DHT22;2286;51.570;7.090;2022-11-20T00:53:41;-4.10;1.00
4548;DHT22;2286;51.570;7.090;2022-11-20T00:56:10;-4.00;1.00
4548;DHT22;2286;51.570;7.090;2022-11-20T00:58:39;-4.10;1.00
4548;DHT22;2286;51.570;7.090;2022-11-20T01:01:09;-4.10;1.00
4548;DHT22;2286;51.570;7.090;2022-11-20T01:03:39;-4.00;1.00
4548;DHT22;2286;51.570;7.090;2022-11-20T01:06:09;-4.00;1.00
4548;DHT22;2286;51.570;7.090;2022-11-20T01:08:37;-4.10;1.00
4548;DHT22;2286;51.570;7.090;2022-11-20T01:11:08;-4.10;1.00
4548;DHT22;2286;51.570;7.090;2022-11-20T01:13:36;-4.10;1.00
4548;DHT22;2286;51.570;7.090;2022-11-20T01:16:04;-4.10;1.00
4548;DHT22;2286;51.570;7.090;2022-11-20T01:18:32;-4.20;1.00
4548;DHT22;2286;51.570;7.090;2022-11-20T01:21:03;-4.20;1.00
4548;DHT22;2286;51.570;7.090;2022-11-20T01:23:32;-4.20;1.00
4548;DHT22;2286;51.570;7.090;2022-11-20T01:26:03;-4.30;1.00
4548;DHT22;2286;51.570;7.090;2022-11-20T01:28:32;-4.20;1.00
4548;DHT22;2286;51.570;7.090;2022-11-20T01:31:00;-4.10;1.00
4548;DHT22;2286;51.570;7.090;2022-11-20T01:33:28;-4.10;5.20
4548;DHT22;2286;51.570;7.090;2022-11-20T01:36:04;-4.20;6.70
4548;DHT22;2286;51.570;7.090;2022-11-20T01:38:32;-4.20;4.40
4548;DHT22;2286;51.570;7.090;2022-11-20T01:41:00;-4.20;7.00
4548;DHT22;2286;51.570;7.090;2022-11-20T01:43:28;-4.10;14.60
4548;DHT22;2286;51.570;7.090;2022-11-20T01:46:16;-4.30;1.00
4548;DHT22;2286;51.570;7.090;2022-11-20T01:48:48;-4.30;1.00
4548;DHT22;2286;51.570;7.090;2022-11-20T01:51:21;-4.30;9.60
4548;DHT22;2286;51.570;7.090;2022-11-20T01:53:53;-4.20;24.10
4548;DHT22;2286;51.570;7.090;2022-11-20T01:56:21;-4.20;37.20
4548;DHT22;2286;51.570;7.090;2022-11-20T01:58:53;-4.20;30.20
4548;DHT22;2286;51.570;7.090;2022-11-20T02:01:22;-4.20;49.70
4548;DHT22;2286;51.570;7.090;2022-11-20T02:03:50;-4.10;60.10
4548;DHT22;2286;51.570;7.090;2022-11-20T02:06:20;-4.20;43.60
4548;DHT22;2286;51.570;7.090;2022-11-20T02:08:50;-4.20;45.00
4548;DHT22;2286;51.570;7.090;2022-11-20T02:11:17;-4.20;50.00
4548;DHT22;2286;51.570;7.090;2022-11-20T02:13:45;-4.20;53.10
4548;DHT22;2286;51.570;7.090;2022-11-20T02:16:18;-4.20;57.30
4548;DHT22;2286;51.570;7.090;2022-11-20T02:18:48;-4.20;42.50
4548;DHT22;2286;51.570;7.090;2022-11-20T02:21:25;-4.40;17.80
4548;DHT22;2286;51.570;7.090;2022-11-20T02:24:13;-4.40;12.30
4548;DHT22;2286;51.570;7.090;2022-11-20T02:26:46;-4.40;15.50
4548;DHT22;2286;51.570;7.090;2022-11-20T02:29:18;-4.30;35.40
4548;DHT22;2286;51.570;7.090;2022-11-20T02:31:46;-4.40;44.70
4548;DHT22;2286;51.570;7.090;2022-11-20T02:34:14;-4.30;53.50
4548;DHT22;2286;51.570;7.090;2022-11-20T02:36:42;-4.30;72.20
4548;DHT22;2286;51.570;7.090;2022-11-20T02:39:11;-4.40;57.90
4548;DHT22;2286;51.570;7.090;2022-11-20T02:41:43;-4.40;40.80
4548;DHT22;2286;51.570;7.090;2022-11-20T02:44:11;-4.40;46.40
4548;DHT22;2286;51.570;7.090;2022-11-20T02:46:39;-4.30;94.90
4548;DHT22;2286;51.570;7.090;2022-11-20T02:49:07;-4.40;95.60
4548;DHT22;2286;51.570;7.090;2022-11-20T02:51:34;-4.40;97.40
4548;DHT22;2286;51.570;7.090;2022-11-20T02:54:01;-4.50;93.10
4548;DHT22;2286;51.570;7.090;2022-11-20T02:56:29;-4.50;92.90
4548;DHT22;2286;51.570;7.090;2022-11-20T02:58:58;-4.50;99.90
4548;DHT22;2286;51.570;7.090;2022-11-20T03:01:25;-4.50;99.90
4548;DHT22;2286;51.570;7.090;2022-11-20T03:03:52;-4.50;99.90
4548;DHT22;2286;51.570;7.090;2022-11-20T03:06:20;-4.50;99.90
4548;DHT22;2286;51.570;7.090;2022-11-20T03:08:48;-4.40;99.90
4548;DHT22;2286;51.570;7.090;2022-11-20T03:11:15;-4.40;99.90
4548;DHT22;2286;51.570;7.090;2022-11-20T03:13:43;-4.40;99.90
4548;DHT22;2286;51.570;7.090;2022-11-20T03:16:13;-4.40;99.90
4548;DHT22;2286;51.570;7.090;2022-11-20T03:18:41;-4.40;99.90
4548;DHT22;2286;51.570;7.090;2022-11-20T03:21:10;-4.40;99.90
4548;DHT22;2286;51.570;7.090;2022-11-20T03:23:38;-4.40;99.90
4548;DHT22;2286;51.570;7.090;2022-11-20T03:26:11;-4.30;99.90
4548;DHT22;2286;51.570;7.090;2022-11-20T03:28:38;-4.20;99.90
4548;DHT22;2286;51.570;7.090;2022-11-20T03:31:07;-4.10;99.90
4548;DHT22;2286;51.570;7.090;2022-11-20T03:33:37;-4.00;99.90
4548;DHT22;2286;51.570;7.090;2022-11-20T03:36:06;-4.00;99.90
4548;DHT22;2286;51.570;7.090;2022-11-20T03:38:34;-3.90;99.90
4548;DHT22;2286;51.570;7.090;2022-11-20T03:41:03;-3.90;99.90
4548;DHT22;2286;51.570;7.090;2022-11-20T03:43:31;-3.90;99.90
4548;DHT22;2286;51.570;7.090;2022-11-20T03:45:58;-3.80;99.90
4548;DHT22;2286;51.570;7.090;2022-11-20T03:48:26;-3.70;99.90
4548;DHT22;2286;51.570;7.090;2022-11-20T03:51:08;-3.70;99.90
4548;DHT22;2286;51.570;7.090;2022-11-20T03:53:36;-3.70;99.90
4548;DHT22;2286;51.570;7.090;2022-11-20T03:56:04;-3.60;99.90
4548;DHT22;2286;51.570;7.090;2022-11-20T03:58:32;-3.60;99.90
4548;DHT22;2286;51.570;7.090;2022-11-20T04:01:05;-3.50;99.90
4548;DHT22;2286;51.570;7.090;2022-11-20T04:03:32;-3.50;99.90
4548;DHT22;2286;51.570;7.090;2022-11-20T04:06:03;-3.40;99.90
4548;DHT22;2286;51.570;7.090;2022-11-20T04:08:32;-3.30;99.90
4548;DHT22;2286;51.570;7.090;2022-11-20T04:11:12;-3.30;99.90
4548;DHT22;2286;51.570;7.090;2022-11-20T04:13:39;-3.20;99.90
4548;DHT22;2286;51.570;7.090;2022-11-20T04:16:07;-3.10;99.90
4548;DHT22;2286;51.570;7.090;2022-11-20T04:18:35;-3.00;99.90
4548;DHT22;2286;51.570;7.090;2022-11-20T04:21:04;-3.00;99.90
4548;DHT22;2286;51.570;7.090;2022-11-20T04:23:33;-3.00;99.90
4548;DHT22;2286;51.570;7.090;2022-11-20T04:26:01;-2.90;99.90
4548;DHT22;2286;51.570;7.090;2022-11-20T04:28:29;-2.90;99.90
4548;DHT22;2286;51.570;7.090;2022-11-20T04:31:03;-2.90;99.90
4548;DHT22;2286;51.570;7.090;2022-11-20T04:33:30;-2.90;99.90
4548;DHT22;2286;51.570;7.090;2022-11-20T04:36:01;-2.80;99.90
4548;DHT22;2286;51.570;7.090;2022-11-20T04:38:29;-2.70;99.90
4548;DHT22;2286;51.570;7.090;2022-11-20T04:40:59;-2.70;99.90
4548;DHT22;2286;51.570;7.090;2022-11-20T04:43:26;-2.60;99.90
4548;DHT22;2286;51.570;7.090;2022-11-20T04:45:54;-2.60;99.90
4548;DHT22;2286;51.570;7.090;2022-11-20T04:48:22;-2.50;99.90
4548;DHT22;2286;51.570;7.090;2022-11-20T04:50:49;-2.40;99.90
4548;DHT22;2286;51.570;7.090;2022-11-20T04:53:17;-2.40;99.90
4548;DHT22;2286;51.570;7.090;2022-11-20T04:55:44;-2.30;99.90
4548;DHT22;2286;51.570;7.090;2022-11-20T04:58:14;-2.30;99.90
4548;DHT22;2286;51.570;7.090;2022-11-20T05:00:41;-2.20;99.90
4548;DHT22;2286;51.570;7.090;2022-11-20T05:03:08;-2.30;97.90
4548;DHT22;2286;51.570;7.090;2022-11-20T05:05:36;-2.20;97.90
4548;DHT22;2286;51.570;7.090;2022-11-20T05:08:04;-2.20;95.90
4548;DHT22;2286;51.570;7.090;2022-11-20T05:10:31;-2.20;91.50
4548;DHT22;2286;51.570;7.090;2022-11-20T05:12:58;-2.20;68.30
4548;DHT22;2286;51.570;7.090;2022-11-20T05:15:27;-2.20;50.70
4548;DHT22;2286;51.570;7.090;2022-11-20T05:17:54;-2.20;30.90
4548;DHT22;2286;51.570;7.090;2022-11-20T05:20:22;-2.30;23.20
4548;DHT22;2286;51.570;7.090;2022-11-20T05:22:49;-2.30;18.20
4548;DHT22;2286;51.570;7.090;2022-11-20T05:25:16;-2.30;19.20
4548;DHT22;2286;51.570;7.090;2022-11-20T05:27:43;-2.40;16.30
4548;DHT22;2286;51.570;7.090;2022-11-20T05:30:12;-2.30;27.70
4548;DHT22;2286;51.570;7.090;2022-11-20T05:32:41;-2.40;24.40
4548;DHT22;2286;51.570;7.090;2022-11-20T05:35:08;-2.40;8.50
4548;DHT22;2286;51.570;7.090;2022-11-20T05:37:36;-2.50;1.00
4548;DHT22;2286;51.570;7.090;2022-11-20T05:40:04;-2.50;1.00
4548;DHT22;2286;51.570;7.090;2022-11-20T05:42:31;-2.60;1.00
4548;DHT22;2286;51.570;7.090;2022-11-20T05:44:59;-2.60;1.00
4548;DHT22;2286;51.570;7.090;2022-11-20T05:47:27;-2.60;17.00
4548;DHT22;2286;51.570;7.090;2022-11-20T05:49:57;-2.70;26.00
4548;DHT22;2286;51.570;7.090;2022-11-20T05:52:24;-2.70;17.10
4548;DHT22;2286;51.570;7.090;2022-11-20T05:54:51;-2.80;13.50
4548;DHT22;2286;51.570;7.090;2022-11-20T05:57:18;-2.90;20.40
4548;DHT22;2286;51.570;7.090;2022-11-20T05:59:45;-2.90;46.20
4548;DHT22;2286;51.570;7.090;2022-11-20T06:02:12;-3.00;47.90
4548;DHT22;2286;51.570;7.090;2022-11-20T06:04:39;-2.90;93.70
4548;DHT22;2286;51.570;7.090;2022-11-20T06:07:07;-2.90;99.90
4548;DHT22;2286;51.570;7.090;2022-11-20T06:09:34;-3.00;99.90
4548;DHT22;2286;51.570;7.090;2022-11-20T06:12:02;-3.00;99.90
4548;DHT22;2286;51.570;7.090;2022-11-20T06:14:29;-3.00;99.90
4548;DHT22;2286;51.570;7.090;2022-11-20T06:16:56;-3.00;99.90
4548;DHT22;2286;51.570;7.090;2022-11-20T06:19:22;-3.10;99.90
4548;DHT22;2286;51.570;7.090;2022-11-20T06:21:50;-3.00;99.90
4548;DHT22;2286;51.570;7.090;2022-11-20T06:24:18;-3.10;99.90
4548;DHT22;2286;51.570;7.090;2022-11-20T06:26:45;-3.10;99.90
4548;DHT22;2286;51.570;7.090;2022-11-20T06:29:12;-3.20;99.90
4548;DHT22;2286;51.570;7.090;2022-11-20T06:31:39;-3.20;99.90
4548;DHT22;2286;51.570;7.090;2022-11-20T06:34:08;-3.30;99.90
4548;DHT22;2286;51.570;7.090;2022-11-20T06:36:35;-3.30;99.90
4548;DHT22;2286;51.570;7.090;2022-11-20T06:39:02;-3.40;99.90
4548;DHT22;2286;51.570;7.090;2022-11-20T06:41:30;-3.40;99.90
4548;DHT22;2286;51.570;7.090;2022-11-20T06:43:57;-3.60;99.90
4548;DHT22;2286;51.570;7.090;2022-11-20T06:46:24;-3.60;99.90
4548;DHT22;2286;51.570;7.090;2022-11-20T06:48:51;-3.60;99.90
4548;DHT22;2286;51.570;7.090;2022-11-20T06:51:18;-3.60;99.90
4548;DHT22;2286;51.570;7.090;2022-11-20T06:53:46;-3.70;99.90
4548;DHT22;2286;51.570;7.090;2022-11-20T06:56:14;-3.70;99.90
4548;DHT22;2286;51.570;7.090;2022-11-20T06:58:42;-3.80;99.90
4548;DHT22;2286;51.570;7.090;2022-11-20T07:01:12;-3.70;99.90
4548;DHT22;2286;51.570;7.090;2022-11-20T07:03:40;-3.70;99.90
4548;DHT22;2286;51.570;7.090;2022-11-20T07:06:08;-3.70;99.90
4548;DHT22;2286;51.570;7.090;2022-11-20T07:08:35;-3.70;99.90
4548;DHT22;2286;51.570;7.090;2022-11-20T07:11:05;-3.70;99.90
4548;DHT22;2286;51.570;7.090;2022-11-20T07:13:33;-3.80;99.90
4548;DHT22;2286;51.570;7.090;2022-11-20T07:16:02;-3.80;99.90
4548;DHT22;2286;51.570;7.090;2022-11-20T07:18:30;-3.70;99.90
4548;DHT22;2286;51.570;7.090;2022-11-20T07:21:00;-3.70;99.90
4548;DHT22;2286;51.570;7.090;2022-11-20T07:23:27;-3.80;99.90
4548;DHT22;2286;51.570;7.090;2022-11-20T07:25:54;-3.90;99.90
4548;DHT22;2286;51.570;7.090;2022-11-20T07:28:21;-3.80;99.90
4548;DHT22;2286;51.570;7.090;2022-11-20T07:30:51;-3.70;99.90
4548;DHT22;2286;51.570;7.090;2022-11-20T07:33:20;-3.70;99.90
4548;DHT22;2286;51.570;7.090;2022-11-20T07:35:47;-3.70;99.90
4548;DHT22;2286;51.570;7.090;2022-11-20T07:38:15;-3.60;99.90
4548;DHT22;2286;51.570;7.090;2022-11-20T07:40:42;-3.70;99.90
4548;DHT22;2286;51.570;7.090;2022-11-20T07:43:09;-3.70;99.90
4548;DHT22;2286;51.570;7.090;2022-11-20T07:45:36;-3.70;99.90
4548;DHT22;2286;51.570;7.090;2022-11-20T07:48:03;-3.70;99.90
4548;DHT22;2286;51.570;7.090;2022-11-20T07:50:31;-3.70;99.90
4548;DHT22;2286;51.570;7.090;2022-11-20T07:53:02;-3.70;99.90
4548;DHT22;2286;51.570;7.090;2022-11-20T07:55:30;-3.60;99.90
4548;DHT22;2286;51.570;7.090;2022-11-20T07:57:57;-3.70;99.90
4548;DHT22;2286;51.570;7.090;2022-11-20T08:00:24;-3.60;99.90
4548;DHT22;2286;51.570;7.090;2022-11-20T08:02:52;-3.50;99.90
4548;DHT22;2286;51.570;7.090;2022-11-20T08:05:19;-3.40;99.90
4548;DHT22;2286;51.570;7.090;2022-11-20T08:07:47;-3.30;99.90
4548;DHT22;2286;51.570;7.090;2022-11-20T08:10:15;-3.30;99.90
4548;DHT22;2286;51.570;7.090;2022-11-20T08:12:46;-3.30;99.90
4548;DHT22;2286;51.570;7.090;2022-11-20T08:15:31;-3.30;99.90
4548;DHT22;2286;51.570;7.090;2022-11-20T08:18:02;-3.30;99.90
4548;DHT22;2286;51.570;7.090;2022-11-20T08:20:29;-3.20;99.90
4548;DHT22;2286;51.570;7.090;2022-11-20T08:23:01;-3.20;99.90
4548;DHT22;2286;51.570;7.090;2022-11-20T08:25:29;-3.20;99.90
4548;DHT22;2286;51.570;7.090;2022-11-20T08:27:57;-3.10;99.90
4548;DHT22;2286;51.570;7.090;2022-11-20T08:30:24;-3.10;99.90
4548;DHT22;2286;51.570;7.090;2022-11-20T08:32:51;-3.00;99.90
4548;DHT22;2286;51.570;7.090;2022-11-20T08:35:18;-2.90;99.90
4548;DHT22;2286;51.570;7.090;2022-11-20T08:37:46;-2.90;99.90
4548;DHT22;2286;51.570;7.090;2022-11-20T08:40:15;-2.80;99.90
4548;DHT22;2286;51.570;7.090;2022-11-20T08:42:49;-2.80;99.90
4548;DHT22;2286;51.570;7.090;2022-11-20T08:45:18;-2.70;99.90
4548;DHT22;2286;51.570;7.090;2022-11-20T08:47:45;-2.70;99.90
4548;DHT22;2286;51.570;7.090;2022-11-20T08:50:13;-2.60;99.90
4548;DHT22;2286;51.570;7.090;2022-11-20T08:52:41;-2.50;99.90
4548;DHT22;2286;51.570;7.090;2022-11-20T08:55:08;-2.40;99.90
4548;DHT22;2286;51.570;7.090;2022-11-20T08:57:37;-2.40;99.90
4548;DHT22;2286;51.570;7.090;2022-11-20T09:00:05;-2.30;99.90
4548;DHT22;2286;51.570;7.090;2022-11-20T09:02:32;-2.30;99.90
4548;DHT22;2286;51.570;7.090;2022-11-20T09:04:59;-2.20;99.90
4548;DHT22;2286;51.570;7.090;2022-11-20T09:07:28;-2.10;99.90
4548;DHT22;2286;51.570;7.090;2022-11-20T09:09:54;-2.00;99.90
4548;DHT22;2286;51.570;7.090;2022-11-20T09:12:21;-2.00;99.90
4548;DHT22;2286;51.570;7.090;2022-11-20T09:14:50;-1.90;99.90
4548;DHT22;2286;51.570;7.090;2022-11-20T09:17:17;-1.90;99.90
4548;DHT22;2286;51.570;7.090;2022-11-20T09:19:45;-1.80;99.90
4548;DHT22;2286;51.570;7.090;2022-11-20T09:22:12;-1.70;99.90
4548;DHT22;2286;51.570;7.090;2022-11-20T09:24:39;-1.60;99.90
4548;DHT22;2286;51.570;7.090;2022-11-20T09:27:07;-1.50;99.90
4548;DHT22;2286;51.570;7.090;2022-11-20T09:29:34;-1.40;99.90
4548;DHT22;2286;51.570;7.090;2022-11-20T09:32:02;-1.30;99.90
4548;DHT22;2286;51.570;7.090;2022-11-20T09:34:29;-1.00;99.90
4548;DHT22;2286;51.570;7.090;2022-11-20T09:36:56;-0.80;99.90
4548;DHT22;2286;51.570;7.090;2022-11-20T09:39:22;-0.50;99.90
4548;DHT22;2286;51.570;7.090;2022-11-20T09:42:04;-0.30;99.90
4548;DHT22;2286;51.570;7.090;2022-11-20T09:44:49;-0.10;99.90
4548;DHT22;2286;51.570;7.090;2022-11-20T09:47:28;0.00;99.90
4548;DHT22;2286;51.570;7.090;2022-11-20T09:50:14;0.20;99.90
4548;DHT22;2286;51.570;7.090;2022-11-20T09:52:52;0.40;99.90
4548;DHT22;2286;51.570;7.090;2022-11-20T09:55:21;0.50;99.90
4548;DHT22;2286;51.570;7.090;2022-11-20T09:57:51;0.70;99.90
4548;DHT22;2286;51.570;7.090;2022-11-20T10:00:19;0.90;99.90
4548;DHT22;2286;51.570;7.090;2022-11-20T10:02:52;1.10;99.90
4548;DHT22;2286;51.570;7.090;2022-11-20T10:05:22;1.20;99.90
4548;DHT22;2286;51.570;7.090;2022-11-20T10:07:55;1.20;99.90
4548;DHT22;2286;51.570;7.090;2022-11-20T10:10:31;1.20;99.90
4548;DHT22;2286;51.570;7.090;2022-11-20T10:13:19;1.40;99.90
4548;DHT22;2286;51.570;7.090;2022-11-20T10:15:56;1.70;99.90
4548;DHT22;2286;51.570;7.090;2022-11-20T10:18:42;2.10;99.90
4548;DHT22;2286;51.570;7.090;2022-11-20T10:21:20;2.30;99.90
4548;DHT22;2286;51.570;7.090;2022-11-20T10:24:03;2.50;99.90
4548;DHT22;2286;51.570;7.090;2022-11-20T10:26:42;2.50;99.90
4548;DHT22;2286;51.570;7.090;2022-11-20T10:29:11;2.80;99.90
4548;DHT22;2286;51.570;7.090;2022-11-20T10:31:41;3.20;99.90
4548;DHT22;2286;51.570;7.090;2022-11-20T10:34:19;3.70;90.60
4548;DHT22;2286;51.570;7.090;2022-11-20T10:36:51;3.90;1.00
4548;DHT22;2286;51.570;7.090;2022-11-20T10:39:24;4.30;99.90
4548;DHT22;2286;51.570;7.090;2022-11-20T10:41:53;4.90;99.90
4548;DHT22;2286;51.570;7.090;2022-11-20T10:44:22;5.30;1.00
4548;DHT22;2286;51.570;7.090;2022-11-20T10:47:13;5.30;1.00
4548;DHT22;2286;51.570;7.090;2022-11-20T10:49:41;5.30;90.80
4548;DHT22;2286;51.570;7.090;2022-11-20T10:52:13;5.20;57.20
4548;DHT22;2286;51.570;7.090;2022-11-20T10:54:46;5.10;99.90
4548;DHT22;2286;51.570;7.090;2022-11-20T10:57:24;4.90;99.90
4548;DHT22;2286;51.570;7.090;2022-11-20T11:00:02;4.80;99.90
4548;DHT22;2286;51.570;7.090;2022-11-20T11:02:38;4.80;99.90
4548;DHT22;2286;51.570;7.090;2022-11-20T11:05:16;4.80;3.80
4548;DHT22;2286;51.570;7.090;2022-11-20T11:07:45;4.80;99.90
4548;DHT22;2286;51.570;7.090;2022-11-20T11:10:18;4.80;1.00
4548;DHT22;2286;51.570;7.090;2022-11-20T11:12:46;4.90;46.90
4548;DHT22;2286;51.570;7.090;2022-11-20T11:15:24;4.90;1.00
4548;DHT22;2286;51.570;7.090;2022-11-20T11:17:51;5.00;99.90
4548;DHT22;2286;51.570;7.090;2022-11-20T11:20:20;4.90;99.90
4548;DHT22;2286;51.570;7.090;2022-11-20T11:22:49;4.80;1.00
4548;DHT22;2286;51.570;7.090;2022-11-20T11:25:21;4.80;99.90
4548;DHT22;2286;51.570;7.090;2022-11-20T11:27:49;4.90;1.00
4548;DHT22;2286;51.570;7.090;2022-11-20T11:30:18;4.90;1.00
4548;DHT22;2286;51.570;7.090;2022-11-20T11:32:45;4.90;1.00
4548;DHT22;2286;51.570;7.090;2022-11-20T11:35:22;4.90;1.00
4548;DHT22;2286;51.570;7.090;2022-11-20T11:37:51;4.90;1.00
4548;DHT22;2286;51.570;7.090;2022-11-20T11:40:21;4.90;99.90
4548;DHT22;2286;51.570;7.090;2022-11-20T11:42:54;4.90;1.00
4548;DHT22;2286;51.570;7.090;2022-11-20T11:45:22;5.00;1.00
4548;DHT22;2286;51.570;7.090;2022-11-20T11:47:51;5.00;1.00
4548;DHT22;2286;51.570;7.090;2022-11-20T11:50:22;5.10;99.90
4548;DHT22;2286;51.570;7.090;2022-11-20T11:52:55;5.20;99.90
4548;DHT22;2286;51.570;7.090;2022-11-20T11:55:31;5.40;99.90
4548;DHT22;2286;51.570;7.090;2022-11-20T11:58:08;5.50;1.00
4548;DHT22;2286;51.570;7.090;2022-11-20T12:00:37;5.70;1.00
4548;DHT22;2286;51.570;7.090;2022-11-20T12:03:09;5.60;1.00
4548;DHT22;2286;51.570;7.090;2022-11-20T12:05:44;5.60;1.00
4548;DHT22;2286;51.570;7.090;2022-11-20T12:08:16;5.50;99.90
4548;DHT22;2286;51.570;7.090;2022-11-20T12:10:48;5.40;99.90
4548;DHT22;2286;51.570;7.090;2022-11-20T12:13:26;5.20;11.90
4548;DHT22;2286;51.570;7.090;2022-11-20T12:15:55;5.10;99.90
4548;DHT22;2286;51.570;7.090;2022-11-20T12:18:22;5.00;1.00
4548;DHT22;2286;51.570;7.090;2022-11-20T12:20:59;5.10;1.00
4548;DHT22;2286;51.570;7.090;2022-11-20T12:23:38;5.10;33.30
4548;DHT22;2286;51.570;7.090;2022-11-20T12:26:13;5.20;99.90
4548;DHT22;2286;51.570;7.090;2022-11-20T12:28:53;5.20;1.00
4548;DHT22;2286;51.570;7.090;2022-11-20T12:31:34;5.10;99.90
4548;DHT22;2286;51.570;7.090;2022-11-20T12:34:16;5.10;1.00
4548;DHT22;2286;51.570;7.090;2022-11-20T12:36:52;5.10;1.00
4548;DHT22;2286;51.570;7.090;2022-11-20T12:39:36;5.10;1.00
4548;DHT22;2286;51.570;7.090;2022-11-20T12:45:44;4.90;22.70
4548;DHT22;2286;51.570;7.090;2022-11-20T12:48:36;4.80;87.10
4548;DHT22;2286;51.570;7.090;2022-11-20T12:51:26;4.70;99.90
4548;DHT22;2286;51.570;7.090;2022-11-20T12:56:56;4.60;99.90
4548;DHT22;2286;51.570;7.090;2022-11-20T12:59:45;4.50;1.00
4548;DHT22;2286;51.570;7.090;2022-11-20T13:02:25;4.50;1.00
4548;DHT22;2286;51.570;7.090;2022-11-20T13:05:08;4.50;1.00
4548;DHT22;2286;51.570;7.090;2022-11-20T13:07:42;4.50;99.90
4548;DHT22;2286;51.570;7.090;2022-11-20T13:10:18;4.50;99.90
4548;DHT22;2286;51.570;7.090;2022-11-20T13:12:51;4.50;1.00
4548;DHT22;2286;51.570;7.090;2022-11-20T13:15:31;4.40;1.00
4548;DHT22;2286;51.570;7.090;2022-11-20T13:18:04;4.50;1.00
4548;DHT22;2286;51.570;7.090;2022-11-20T13:20:33;4.50;1.00
4548;DHT22;2286;51.570;7.090;2022-11-20T13:23:00;4.50;1.00
4548;DHT22;2286;51.570;7.090;2022-11-20T13:25:29;4.40;1.00
4548;DHT22;2286;51.570;7.090;2022-11-20T13:27:58;4.40;1.00
4548;DHT22;2286;51.570;7.090;2022-11-20T13:30:26;4.40;1.00
4548;DHT22;2286;51.570;7.090;2022-11-20T13:32:55;4.40;1.00
4548;DHT22;2286;51.570;7.090;2022-11-20T13:35:28;4.50;99.90
4548;DHT22;2286;51.570;7.090;2022-11-20T13:38:06;4.40;1.00
4548;DHT22;2286;51.570;7.090;2022-11-20T13:40:36;4.40;1.00
4548;DHT22;2286;51.570;7.090;2022-11-20T13:43:11;4.40;1.00
4548;DHT22;2286;51.570;7.090;2022-11-20T13:45:41;4.40;1.00
4548;DHT22;2286;51.570;7.090;2022-11-20T13:48:19;4.40;1.00
4548;DHT22;2286;51.570;7.090;2022-11-20T13:51:02;4.40;1.00
4548;DHT22;2286;51.570;7.090;2022-11-20T13:53:42;4.50;1.00
4548;DHT22;2286;51.570;7.090;2022-11-20T13:56:18;4.50;99.90
4548;DHT22;2286;51.570;7.090;2022-11-20T13:58:56;4.40;99.90
4548;DHT22;2286;51.570;7.090;2022-11-20T14:01:28;4.40;99.90
4548;DHT22;2286;51.570;7.090;2022-11-20T14:03:57;4.40;1.00
4548;DHT22;2286;51.570;7.090;2022-11-20T14:06:27;4.40;1.00
4548;DHT22;2286;51.570;7.090;2022-11-20T14:08:55;4.40;1.00
4548;DHT22;2286;51.570;7.090;2022-11-20T14:11:25;4.40;1.00
4548;DHT22;2286;51.570;7.090;2022-11-20T14:13:55;4.40;1.00
4548;DHT22;2286;51.570;7.090;2022-11-20T14:16:22;4.40;1.00
4548;DHT22;2286;51.570;7.090;2022-11-20T14:18:50;4.40;95.50
4548;DHT22;2286;51.570;7.090;2022-11-20T14:21:25;4.30;99.90
4548;DHT22;2286;51.570;7.090;2022-11-20T14:24:03;4.30;99.90
4548;DHT22;2286;51.570;7.090;2022-11-20T14:26:32;4.30;99.90
4548;DHT22;2286;51.570;7.090;2022-11-20T14:28:59;4.20;1.00
4548;DHT22;2286;51.570;7.090;2022-11-20T14:31:27;4.20;99.90
4548;DHT22;2286;51.570;7.090;2022-11-20T14:33:55;4.20;99.90
4548;DHT22;2286;51.570;7.090;2022-11-20T14:36:23;4.20;1.00
4548;DHT22;2286;51.570;7.090;2022-11-20T14:38:52;4.20;1.00
4548;DHT22;2286;51.570;7.090;2022-11-20T14:41:20;4.20;99.90
4548;DHT22;2286;51.570;7.090;2022-11-20T14:43:52;4.20;1.00
4548;DHT22;2286;51.570;7.090;2022-11-20T14:46:21;4.10;1.00
4548;DHT22;2286;51.570;7.090;2022-11-20T14:48:50;4.10;99.90
4548;DHT22;2286;51.570;7.090;2022-11-20T14:51:26;4.10;99.90
4548;DHT22;2286;51.570;7.090;2022-11-20T14:53:53;4.00;99.90
4548;DHT22;2286;51.570;7.090;2022-11-20T14:56:22;4.00;1.00
4548;DHT22;2286;51.570;7.090;2022-11-20T14:58:57;4.00;1.00
4548;DHT22;2286;51.570;7.090;2022-11-20T15:01:27;3.90;32.80
4548;DHT22;2286;51.570;7.090;2022-11-20T15:04:00;3.90;99.90
4548;DHT22;2286;51.570;7.090;2022-11-20T15:06:27;3.90;61.60
4548;DHT22;2286;51.570;7.090;2022-11-20T15:08:54;3.80;11.20
4548;DHT22;2286;51.570;7.090;2022-11-20T15:11:27;3.80;96.00
4548;DHT22;2286;51.570;7.090;2022-11-20T15:13:57;3.70;99.90
4548;DHT22;2286;51.570;7.090;2022-11-20T15:16:24;3.70;99.90
4548;DHT22;2286;51.570;7.090;2022-11-20T15:18:53;3.70;99.90
4548;DHT22;2286;51.570;7.090;2022-11-20T15:21:21;3.60;99.90
4548;DHT22;2286;51.570;7.090;2022-11-20T15:23:48;3.60;99.90
4548;DHT22;2286;51.570;7.090;2022-11-20T15:26:21;3.60;99.90
4548;DHT22;2286;51.570;7.090;2022-11-20T15:28:48;3.60;1.00
4548;DHT22;2286;51.570;7.090;2022-11-20T15:31:19;3.60;1.00
4548;DHT22;2286;51.570;7.090;2022-11-20T15:33:46;3.50;1.00
4548;DHT22;2286;51.570;7.090;2022-11-20T15:36:13;3.50;1.00
4548;DHT22;2286;51.570;7.090;2022-11-20T15:38:40;3.50;1.00
4548;DHT22;2286;51.570;7.090;2022-11-20T15:41:07;3.40;1.00
4548;DHT22;2286;51.570;7.090;2022-11-20T15:43:34;3.40;1.00
4548;DHT22;2286;51.570;7.090;2022-11-20T15:46:03;3.40;41.20
4548;DHT22;2286;51.570;7.090;2022-11-20T15:48:36;3.40;87.50
4548;DHT22;2286;51.570;7.090;2022-11-20T15:51:12;3.40;99.90
4548;DHT22;2286;51.570;7.090;2022-11-20T15:53:43;3.40;99.90
4548;DHT22;2286;51.570;7.090;2022-11-20T15:56:11;3.40;99.90
4548;DHT22;2286;51.570;7.090;2022-11-20T15:58:39;3.40;99.90
4548;DHT22;2286;51.570;7.090;2022-11-20T16:01:10;3.30;99.90
4548;DHT22;2286;51.570;7.090;2022-11-20T16:03:38;3.30;99.90
4548;DHT22;2286;51.570;7.090;2022-11-20T16:06:05;3.30;99.90
4548;DHT22;2286;51.570;7.090;2022-11-20T16:08:31;3.30;99.90
4548;DHT22;2286;51.570;7.090;2022-11-20T16:10:58;3.20;99.90
4548;DHT22;2286;51.570;7.090;2022-11-20T16:13:25;3.20;99.90
4548;DHT22;2286;51.570;7.090;2022-11-20T16:16:19;3.20;99.90
4548;DHT22;2286;51.570;7.090;2022-11-20T16:18:47;3.20;99.90
4548;DHT22;2286;51.570;7.090;2022-11-20T16:21:14;3.20;99.90
4548;DHT22;2286;51.570;7.090;2022-11-20T16:23:41;3.20;99.90
4548;DHT22;2286;51.570;7.090;2022-11-20T16:26:09;3.30;99.90
4548;DHT22;2286;51.570;7.090;2022-11-20T16:28:36;3.20;99.90
4548;DHT22;2286;51.570;7.090;2022-11-20T16:31:08;3.20;99.90
4548;DHT22;2286;51.570;7.090;2022-11-20T16:33:35;3.20;99.90
4548;DHT22;2286;51.570;7.090;2022-11-20T16:36:08;3.20;99.90
4548;DHT22;2286;51.570;7.090;2022-11-20T16:38:35;3.20;99.90